createdAt,value
2023-03-01T00:01:06.252Z,102193.84
2023-03-01T00:03:33.220Z,102280.44
2023-03-01T00:05:59.891Z,102225.25
2023-03-01T00:08:26.916Z,102162.63
2023-03-01T00:11:07.138Z,102305.22
2023-03-01T00:13:34.165Z,102221.72
2023-03-01T00:16:08.289Z,102313.78
2023-03-01T00:18:37.168Z,102149.88
2023-03-01T00:21:04.136Z,102203.53
2023-03-01T00:23:34.969Z,102310.19
2023-03-01T00:26:01.822Z,102144.28
2023-03-01T00:28:28.449Z,102289.78
2023-03-01T00:30:54.958Z,102213.97
2023-03-01T00:33:22.523Z,102135.94
2023-03-01T00:35:48.970Z,102139.56
2023-03-01T00:38:17.782Z,102254.25
2023-03-01T00:40:44.302Z,102269.53
2023-03-01T00:43:13.898Z,102193.00
2023-03-01T00:45:40.283Z,102186.97
2023-03-01T00:48:06.677Z,102182.41
2023-03-01T00:50:33.200Z,102048.19
2023-03-01T00:52:59.660Z,102182.41
2023-03-01T00:55:26.551Z,102183.69
2023-03-01T00:57:53.375Z,102175.00
2023-03-01T01:00:21.037Z,102159.00
2023-03-01T01:02:47.864Z,102241.06
2023-03-01T01:05:14.417Z,102209.06
2023-03-01T01:07:40.923Z,102123.91
2023-03-01T01:10:08.189Z,102077.00
2023-03-01T01:12:34.762Z,102018.84
2023-03-01T01:15:03.521Z,102148.72
2023-03-01T01:17:30.248Z,102248.78
2023-03-01T01:19:59.564Z,102271.88
2023-03-01T01:22:29.165Z,102248.84
2023-03-01T01:24:55.725Z,102170.22
2023-03-01T01:27:22.319Z,102167.38
2023-03-01T01:29:48.872Z,102140.69
2023-03-01T01:32:15.423Z,102052.88
2023-03-01T01:34:52.372Z,102097.41
2023-03-01T01:37:22.101Z,102128.41
2023-03-01T01:39:50.141Z,102033.38
2023-03-01T01:42:19.505Z,102056.34
2023-03-01T01:44:48.988Z,102124.88
2023-03-01T01:47:25.795Z,102068.69
2023-03-01T01:49:55.904Z,102052.16
2023-03-01T01:52:41.762Z,102138.41
2023-03-01T01:55:21.916Z,102203.97
2023-03-01T01:57:52.528Z,102075.63
2023-03-01T02:00:24.984Z,102213.38
2023-03-01T02:02:57.656Z,102047.91
2023-03-01T02:05:44.202Z,102067.00
2023-03-01T02:08:13.387Z,102046.38
2023-03-01T02:10:41.281Z,102199.88
2023-03-01T02:13:08.098Z,101982.63
2023-03-01T02:15:38.707Z,102081.25
2023-03-01T02:18:06.692Z,102161.75
2023-03-01T02:20:57.634Z,102207.44
2023-03-01T02:23:24.426Z,101959.97
2023-03-01T02:25:57.154Z,102062.47
2023-03-01T02:28:31.755Z,101946.66
2023-03-01T02:31:17.358Z,102186.75
2023-03-01T02:33:45.055Z,102059.53
2023-03-01T02:36:31.433Z,102026.16
2023-03-01T02:39:00.905Z,102026.25
2023-03-01T02:41:31.850Z,102189.44
2023-03-01T02:43:58.621Z,101937.88
2023-03-01T02:46:26.791Z,101961.06
2023-03-01T02:48:58.348Z,102203.41
2023-03-01T02:51:33.770Z,102216.53
2023-03-01T02:54:18.767Z,102216.06
2023-03-01T02:56:49.164Z,102093.19
2023-03-01T02:59:19.025Z,102103.00
2023-03-01T03:01:47.132Z,102110.97
2023-03-01T03:04:17.853Z,102104.22
2023-03-01T03:06:47.312Z,102177.59
2023-03-01T03:09:20.247Z,102199.78
2023-03-01T03:11:47.377Z,101942.91
2023-03-01T03:14:16.386Z,101981.56
2023-03-01T03:16:45.349Z,102183.75
2023-03-01T03:19:12.536Z,102196.38
2023-03-01T03:21:39.184Z,102168.25
2023-03-01T03:24:06.089Z,102056.75
2023-03-01T03:26:33.569Z,102174.63
2023-03-01T03:29:00.106Z,102161.13
2023-03-01T03:31:27.310Z,102166.78
2023-03-01T03:33:53.991Z,102180.53
2023-03-01T03:36:23.793Z,102196.66
2023-03-01T03:41:46.439Z,102182.56
2023-03-01T03:44:15.904Z,101944.31
2023-03-01T03:46:42.297Z,102183.66
2023-03-01T03:49:08.733Z,102190.53
2023-03-01T03:51:35.102Z,101977.22
2023-03-01T03:54:01.594Z,101984.66
2023-03-01T03:56:28.882Z,101956.03
2023-03-01T03:58:55.513Z,102046.22
2023-03-01T04:01:21.936Z,102093.59
2023-03-01T04:03:48.397Z,101989.13
2023-03-01T04:06:15.159Z,102167.38
2023-03-01T04:08:42.049Z,102084.31
2023-03-01T04:11:26.906Z,102050.25
2023-03-01T04:14:00.170Z,102174.41
2023-03-01T04:16:26.810Z,102106.91
2023-03-01T04:18:54.462Z,102070.88
2023-03-01T04:21:21.221Z,102060.69
2023-03-01T04:23:47.668Z,102048.44
2023-03-01T04:26:14.048Z,102007.03
2023-03-01T04:28:43.999Z,101959.75
2023-03-01T04:31:18.274Z,102117.91
2023-03-01T04:33:50.201Z,102048.06
2023-03-01T04:36:19.244Z,101976.53
2023-03-01T04:38:49.455Z,101893.28
2023-03-01T04:41:18.339Z,102171.94
2023-03-01T04:43:45.620Z,101899.66
2023-03-01T04:46:17.755Z,101899.03
2023-03-01T04:48:45.708Z,102115.31
2023-03-01T04:51:16.540Z,101901.91
2023-03-01T04:53:43.810Z,102142.19
2023-03-01T04:56:10.406Z,102131.53
2023-03-01T04:58:37.183Z,102034.22
2023-03-01T05:01:16.425Z,102127.31
2023-03-01T05:03:44.677Z,101889.13
2023-03-01T05:06:11.935Z,102139.78
2023-03-01T05:08:43.441Z,101950.97
2023-03-01T05:11:11.342Z,102056.78
2023-03-01T05:13:39.113Z,101886.97
2023-03-01T05:16:07.404Z,101970.78
2023-03-01T05:18:35.772Z,102091.75
2023-03-01T05:21:06.990Z,102123.47
2023-03-01T05:23:34.704Z,102037.44
2023-03-01T05:26:03.386Z,102155.16
2023-03-01T05:28:30.473Z,102034.19
2023-03-01T05:30:58.422Z,102136.50
2023-03-01T05:33:29.093Z,102113.66
2023-03-01T05:35:55.755Z,102035.94
2023-03-01T05:38:23.423Z,102088.31
2023-03-01T05:40:50.187Z,102042.09
2023-03-01T05:43:18.969Z,102062.19
2023-03-01T05:45:45.578Z,102122.34
2023-03-01T05:48:13.638Z,102138.78
2023-03-01T05:50:43.343Z,102120.84
2023-03-01T05:53:15.676Z,102116.41
2023-03-01T05:55:46.072Z,102078.75
2023-03-01T05:58:17.849Z,102097.75
2023-03-01T06:00:45.776Z,102006.09
2023-03-01T06:03:14.030Z,102093.56
2023-03-01T06:05:41.686Z,102104.56
2023-03-01T06:08:08.204Z,102095.06
2023-03-01T06:10:34.533Z,102015.72
2023-03-01T06:13:00.914Z,102111.81
2023-03-01T06:15:27.754Z,102131.09
2023-03-01T06:17:59.964Z,102103.38
2023-03-01T06:20:28.403Z,102135.31
2023-03-01T06:22:54.889Z,102132.38
2023-03-01T06:25:24.326Z,102122.81
2023-03-01T06:27:50.765Z,102141.34
2023-03-01T06:30:19.820Z,102105.72
2023-03-01T06:32:46.344Z,102105.97
2023-03-01T06:35:14.877Z,102082.19
2023-03-01T06:37:42.132Z,102070.81
2023-03-01T06:40:12.316Z,102118.78
2023-03-01T06:42:40.538Z,102075.16
2023-03-01T06:45:08.270Z,101980.91
2023-03-01T06:47:34.800Z,102027.91
2023-03-01T06:50:02.042Z,102026.91
2023-03-01T06:52:28.380Z,102103.72
2023-03-01T06:54:54.749Z,102043.47
2023-03-01T06:57:21.094Z,102098.25
2023-03-01T06:59:48.291Z,102018.97
2023-03-01T07:02:15.955Z,102115.19
2023-03-01T07:04:43.247Z,102124.94
2023-03-01T07:07:09.622Z,102072.44
2023-03-01T07:09:36.061Z,102125.22
2023-03-01T07:12:02.742Z,102122.38
2023-03-01T07:14:29.344Z,102009.44
2023-03-01T07:16:56.009Z,102048.56
2023-03-01T07:19:23.641Z,102129.88
2023-03-01T07:21:50.221Z,102001.34
2023-03-01T07:24:16.642Z,102083.94
2023-03-01T07:26:42.972Z,102075.50
2023-03-01T07:29:11.345Z,101974.91
2023-03-01T07:31:37.833Z,102086.09
2023-03-01T07:34:04.321Z,101997.94
2023-03-01T07:36:31.017Z,102038.59
2023-03-01T07:38:58.761Z,102085.94
2023-03-01T07:41:25.239Z,102100.44
2023-03-01T07:43:51.615Z,102063.78
2023-03-01T07:46:19.948Z,102069.25
2023-03-01T07:48:46.378Z,102064.22
2023-03-01T07:51:12.770Z,102045.91
2023-03-01T07:53:39.160Z,102099.50
2023-03-01T07:56:08.181Z,102001.34
2023-03-01T07:58:42.613Z,101986.97
2023-03-01T08:01:12.741Z,101970.22
2023-03-01T08:03:39.596Z,102105.06
2023-03-01T08:06:08.050Z,102106.41
2023-03-01T08:08:35.094Z,102072.06
2023-03-01T08:11:03.333Z,102121.22
2023-03-01T08:13:30.357Z,102121.56
2023-03-01T08:16:21.883Z,102107.94
2023-03-01T08:18:48.312Z,102106.50
2023-03-01T08:21:18.645Z,102116.72
2023-03-01T08:23:45.659Z,102081.09
2023-03-01T08:26:20.092Z,102105.50
2023-03-01T08:28:47.420Z,101892.09
2023-03-01T08:31:20.299Z,102081.22
2023-03-01T08:33:57.449Z,102077.13
2023-03-01T08:36:30.039Z,102099.16
2023-03-01T08:38:57.140Z,102107.03
2023-03-01T08:41:24.103Z,101900.75
2023-03-01T08:43:50.811Z,102105.25
2023-03-01T08:46:17.768Z,102087.06
2023-03-01T08:48:44.361Z,102080.75
2023-03-01T08:51:17.255Z,101979.56
2023-03-01T08:53:44.897Z,102098.69
2023-03-01T08:56:11.963Z,102061.47
2023-03-01T08:58:38.894Z,102094.31
2023-03-01T09:01:09.981Z,102035.09
2023-03-01T09:03:36.877Z,101979.69
2023-03-01T09:06:05.450Z,102039.09
2023-03-01T09:08:35.597Z,102064.09
2023-03-01T09:11:06.260Z,102061.31
2023-03-01T09:13:33.332Z,101975.91
2023-03-01T09:16:02.132Z,102057.91
2023-03-01T09:18:29.232Z,102085.13
2023-03-01T09:21:09.655Z,102072.06
2023-03-01T09:23:39.478Z,102031.97
2023-03-01T09:26:12.727Z,102076.69
2023-03-01T09:28:45.378Z,102076.97
2023-03-01T09:31:16.170Z,102070.28
2023-03-01T09:33:43.542Z,102072.72
2023-03-01T09:36:15.879Z,102019.69
2023-03-01T09:38:42.577Z,102039.44
2023-03-01T09:41:39.553Z,102036.50
2023-03-01T09:44:17.124Z,102043.00
2023-03-01T09:46:46.406Z,102058.91
2023-03-01T09:49:20.598Z,101946.75
2023-03-01T09:51:57.004Z,102049.44
2023-03-01T09:54:23.485Z,102034.75
2023-03-01T09:57:14.317Z,102016.25
2023-03-01T10:00:10.534Z,102043.09
2023-03-01T10:02:48.564Z,102032.88
2023-03-01T10:05:22.347Z,102022.75
2023-03-01T10:08:37.187Z,102023.00
2023-03-01T10:11:05.881Z,102028.66
2023-03-01T10:13:45.924Z,101986.88
2023-03-01T10:16:26.905Z,101988.13
2023-03-01T10:18:59.021Z,101981.91
2023-03-01T10:21:28.023Z,101961.16
2023-03-01T10:23:54.881Z,101941.34
2023-03-01T10:26:46.004Z,102010.53
2023-03-01T10:29:14.135Z,101986.03
2023-03-01T10:31:45.416Z,101926.81
2023-03-01T10:34:18.438Z,101981.44
2023-03-01T10:36:48.831Z,101972.94
2023-03-01T10:39:21.166Z,101948.59
2023-03-01T10:41:59.723Z,102003.78
2023-03-01T10:44:37.024Z,101975.22
2023-03-01T10:47:03.729Z,101971.69
2023-03-01T10:49:30.152Z,101972.78
2023-03-01T10:51:56.759Z,101958.16
2023-03-01T10:54:32.006Z,101957.25
2023-03-01T10:57:03.701Z,101847.59
2023-03-01T10:59:36.379Z,101945.91
2023-03-01T11:02:30.928Z,101937.50
2023-03-01T11:05:18.468Z,101901.00
2023-03-01T11:07:49.078Z,101909.13
2023-03-01T11:10:20.662Z,101910.06
2023-03-01T11:12:47.069Z,101904.38
2023-03-01T11:15:28.789Z,101896.00
2023-03-01T11:18:05.952Z,101884.66
2023-03-01T11:20:40.632Z,101874.19
2023-03-01T11:23:13.317Z,101912.69
2023-03-01T11:26:03.838Z,101918.75
2023-03-01T11:28:31.372Z,101879.41
2023-03-01T11:31:13.060Z,101901.75
2023-03-01T11:33:51.438Z,101902.91
2023-03-01T11:36:38.172Z,101898.38
2023-03-01T11:39:21.400Z,101802.81
2023-03-01T11:41:53.433Z,101875.38
2023-03-01T11:44:29.486Z,101877.59
2023-03-01T11:47:04.990Z,101901.56
2023-03-01T11:49:41.595Z,101869.91
2023-03-01T11:52:16.944Z,101867.56
2023-03-01T11:55:21.865Z,101896.50
2023-03-01T11:58:15.149Z,101891.00
2023-03-01T12:01:05.231Z,101888.53
2023-03-01T12:04:03.923Z,101892.22
2023-03-01T12:06:55.595Z,101887.22
2023-03-01T12:09:44.291Z,101831.19
2023-03-01T12:12:13.608Z,101891.84
2023-03-01T12:14:58.167Z,101885.03
2023-03-01T12:17:48.754Z,101879.25
2023-03-01T12:20:36.953Z,101864.03
2023-03-01T12:23:20.457Z,101879.38
2023-03-01T12:26:13.332Z,101876.56
2023-03-01T12:28:40.412Z,101865.94
2023-03-01T12:31:51.604Z,101857.41
2023-03-01T12:34:43.138Z,101849.28
2023-03-01T12:37:48.363Z,101858.75
2023-03-01T12:40:14.699Z,101845.94
2023-03-01T12:43:03.654Z,101832.06
2023-03-01T12:45:55.492Z,101838.03
2023-03-01T12:48:24.808Z,101837.75
2023-03-01T12:50:59.011Z,101835.44
2023-03-01T12:53:40.586Z,101820.31
2023-03-01T12:56:12.763Z,101793.94
2023-03-01T12:58:56.285Z,101792.41
2023-03-01T13:01:53.326Z,101829.50
2023-03-01T13:04:25.852Z,101832.88
2023-03-01T13:07:18.594Z,101824.34
2023-03-01T13:09:50.966Z,101825.75
2023-03-01T13:12:43.255Z,101820.53
2023-03-01T13:15:24.929Z,101813.66
2023-03-01T13:17:53.937Z,101804.88
2023-03-01T13:20:23.972Z,101719.94
2023-03-01T13:23:05.154Z,101742.19
2023-03-01T13:25:37.670Z,101796.41
2023-03-01T13:28:50.209Z,101793.16
2023-03-01T13:31:16.538Z,101787.47
2023-03-01T13:33:50.541Z,101730.47
2023-03-01T13:36:29.669Z,101751.38
2023-03-01T13:38:56.391Z,101775.22
2023-03-01T13:41:47.156Z,101782.88
2023-03-01T13:44:42.011Z,101771.88
2023-03-01T13:47:16.175Z,101775.81
2023-03-01T13:49:54.611Z,101644.47
2023-03-01T13:52:37.465Z,101780.97
2023-03-01T13:55:26.692Z,101617.72
2023-03-01T13:58:14.424Z,101679.66
2023-03-01T14:00:43.457Z,101754.44
2023-03-01T14:03:20.895Z,101641.63
2023-03-01T14:06:20.922Z,101755.53
2023-03-01T14:08:50.545Z,101745.91
2023-03-01T14:11:54.174Z,101762.53
2023-03-01T14:14:29.205Z,101741.66
2023-03-01T14:17:16.794Z,101750.38
2023-03-01T14:19:46.351Z,101727.69
2023-03-01T14:22:28.151Z,101729.81
2023-03-01T14:25:03.624Z,101720.53
2023-03-01T14:27:40.298Z,101629.94
2023-03-01T14:30:22.954Z,101713.59
2023-03-01T14:32:57.863Z,101708.44
2023-03-01T14:35:27.750Z,101617.78
2023-03-01T14:37:56.758Z,101545.16
2023-03-01T14:40:37.440Z,101604.31
2023-03-01T14:43:12.163Z,101699.44
2023-03-01T14:45:38.836Z,101706.22
2023-03-01T14:48:07.985Z,101528.13
2023-03-01T14:50:44.132Z,101558.78
2023-03-01T14:53:22.894Z,101698.69
2023-03-01T14:55:53.756Z,101684.94
2023-03-01T14:58:25.855Z,101537.25
2023-03-01T15:00:57.469Z,101699.00
2023-03-01T15:03:47.274Z,101703.75
2023-03-01T15:06:18.155Z,101704.59
2023-03-01T15:08:53.443Z,101578.59
2023-03-01T15:11:31.109Z,101492.53
2023-03-01T15:13:58.700Z,101541.75
2023-03-01T15:16:29.410Z,101667.16
2023-03-01T15:18:59.973Z,101683.69
2023-03-01T15:21:31.651Z,101600.34
2023-03-01T15:24:25.949Z,101615.19
2023-03-01T15:26:58.299Z,101567.22
2023-03-01T15:29:34.381Z,101572.41
2023-03-01T15:32:07.161Z,101651.50
2023-03-01T15:34:37.759Z,101663.16
2023-03-01T15:37:06.532Z,101424.91
2023-03-01T15:39:38.360Z,101532.66
2023-03-01T15:42:08.797Z,101642.00
2023-03-01T15:44:43.420Z,101528.84
2023-03-01T15:47:31.658Z,101650.41
2023-03-01T15:50:00.618Z,101650.50
2023-03-01T15:52:42.359Z,101655.69
2023-03-01T15:55:29.639Z,101648.78
2023-03-01T15:58:23.386Z,101513.44
2023-03-01T16:01:01.560Z,101459.66
2023-03-01T16:03:29.101Z,101473.69
2023-03-01T16:05:55.550Z,101477.09
2023-03-01T16:08:21.918Z,101644.09
2023-03-01T16:10:50.813Z,101612.69
2023-03-01T16:13:18.564Z,101649.09
2023-03-01T16:15:44.967Z,101635.59
2023-03-01T16:18:12.512Z,101638.91
2023-03-01T16:20:39.137Z,101537.34
2023-03-01T16:23:08.800Z,101486.72
2023-03-01T16:25:38.748Z,101664.06
2023-03-01T16:28:11.573Z,101626.59
2023-03-01T16:30:40.481Z,101552.53
2023-03-01T16:33:24.001Z,101663.06
2023-03-01T16:35:51.953Z,101524.09
2023-03-01T16:38:18.576Z,101527.63
2023-03-01T16:40:49.478Z,101660.75
2023-03-01T16:43:16.140Z,101642.69
2023-03-01T16:45:45.440Z,101500.09
2023-03-01T16:48:12.794Z,101658.38
2023-03-01T16:50:40.038Z,101526.16
2023-03-01T16:53:06.654Z,101649.66
2023-03-01T16:55:33.912Z,101553.19
2023-03-01T16:58:01.623Z,101569.72
2023-03-01T17:00:28.806Z,101657.63
2023-03-01T17:02:55.540Z,101587.16
2023-03-01T17:05:24.624Z,101656.72
2023-03-01T17:07:54.519Z,101539.31
2023-03-01T17:10:21.030Z,101562.78
2023-03-01T17:12:50.926Z,101645.44
2023-03-01T17:15:17.464Z,101549.75
2023-03-01T17:17:44.549Z,101438.41
2023-03-01T17:20:11.431Z,101641.97
2023-03-01T17:22:38.041Z,101636.75
2023-03-01T17:25:05.290Z,101579.31
2023-03-01T17:27:35.424Z,101576.69
2023-03-01T17:30:02.038Z,101538.34
2023-03-01T17:32:28.527Z,101540.06
2023-03-01T17:34:55.133Z,101495.69
2023-03-01T17:37:21.568Z,101656.75
2023-03-01T17:39:48.002Z,101520.91
2023-03-01T17:42:14.463Z,101611.41
2023-03-01T17:44:42.903Z,101621.84
2023-03-01T17:47:10.917Z,101502.59
2023-03-01T17:49:55.751Z,101672.38
2023-03-01T17:52:23.700Z,101548.75
2023-03-01T17:54:50.632Z,101623.59
2023-03-01T17:57:17.316Z,101615.78
2023-03-01T17:59:43.738Z,101530.41
2023-03-01T18:02:12.867Z,101683.66
2023-03-01T18:04:39.579Z,101688.00
2023-03-01T18:07:06.125Z,101599.16
2023-03-01T18:09:32.639Z,101684.44
2023-03-01T18:11:59.025Z,101681.00
2023-03-01T18:14:29.595Z,101561.56
2023-03-01T18:16:57.103Z,101668.66
2023-03-01T18:19:23.608Z,101672.91
2023-03-01T18:21:50.010Z,101504.88
2023-03-01T18:24:16.433Z,101553.66
2023-03-01T18:26:42.918Z,101525.78
2023-03-01T18:29:10.503Z,101558.81
2023-03-01T18:31:37.052Z,101522.16
2023-03-01T18:34:03.824Z,101669.25
2023-03-01T18:36:32.816Z,101626.59
2023-03-01T18:39:01.663Z,101655.94
2023-03-01T18:41:29.550Z,101528.81
2023-03-01T18:43:57.750Z,101530.28
2023-03-01T18:46:24.671Z,101561.41
2023-03-01T18:48:53.261Z,101591.94
2023-03-01T18:51:22.806Z,101513.66
2023-03-01T18:53:49.391Z,101530.38
2023-03-01T18:56:15.875Z,101675.06
2023-03-01T18:58:43.066Z,101562.75
2023-03-01T19:01:18.362Z,101609.06
2023-03-01T19:03:47.157Z,101636.97
2023-03-01T19:06:14.957Z,101654.34
2023-03-01T19:08:42.263Z,101631.63
2023-03-01T19:11:09.566Z,101636.72
2023-03-01T19:13:38.420Z,101608.06
2023-03-01T19:16:20.590Z,101513.94
2023-03-01T19:18:50.467Z,101493.00
2023-03-01T19:25:11.219Z,101624.59
2023-03-01T19:27:38.917Z,101476.50
2023-03-01T19:30:46.217Z,101519.16
2023-03-01T19:33:12.873Z,101625.31
2023-03-01T19:35:43.515Z,101478.09
2023-03-01T19:38:09.957Z,101558.28
2023-03-01T19:40:36.766Z,101664.47
2023-03-01T19:43:04.299Z,101565.19
2023-03-01T19:45:33.728Z,101495.38
2023-03-01T19:48:00.435Z,101531.94
2023-03-01T19:50:26.939Z,101609.41
2023-03-01T19:52:56.101Z,101473.50
2023-03-01T19:55:22.502Z,101516.09
2023-03-01T19:57:49.161Z,101581.31
2023-03-01T20:00:17.112Z,101567.31
2023-03-01T20:02:43.757Z,101568.06
2023-03-01T20:05:10.267Z,101635.47
2023-03-01T20:07:39.539Z,101646.78
2023-03-01T20:10:06.967Z,101566.25
2023-03-01T20:12:36.347Z,101651.06
2023-03-01T20:15:02.908Z,101573.34
2023-03-01T20:17:29.420Z,101484.47
2023-03-01T20:19:55.845Z,101545.19
2023-03-01T20:22:22.333Z,101567.00
2023-03-01T20:24:48.997Z,101653.25
2023-03-01T20:27:15.384Z,101547.97
2023-03-01T20:29:41.858Z,101530.34
2023-03-01T20:32:10.793Z,101616.56
2023-03-01T20:34:37.753Z,101520.69
2023-03-01T20:37:04.238Z,101646.16
2023-03-01T20:39:30.647Z,101613.13
2023-03-01T20:41:57.080Z,101514.66
2023-03-01T20:44:47.464Z,101481.34
2023-03-01T20:47:14.784Z,101657.53
2023-03-01T20:49:41.366Z,101641.00
2023-03-01T20:52:07.837Z,101360.16
2023-03-01T20:54:36.809Z,101486.59
2023-03-01T20:57:03.292Z,101518.69
2023-03-01T20:59:29.708Z,101642.50
2023-03-01T21:01:56.067Z,101651.22
2023-03-01T21:04:22.609Z,101577.13
2023-03-01T21:06:52.207Z,101507.16
2023-03-01T21:09:18.774Z,101450.53
2023-03-01T21:11:45.190Z,101526.97
2023-03-01T21:14:14.824Z,101654.38
2023-03-01T21:16:45.600Z,101582.72
2023-03-01T21:19:12.076Z,101512.00
2023-03-01T21:21:38.551Z,101561.72
2023-03-01T21:24:05.598Z,101489.38
2023-03-01T21:26:32.362Z,101664.69
2023-03-01T21:29:02.747Z,101665.56
2023-03-01T21:31:33.781Z,101669.63
2023-03-01T21:34:04.302Z,101576.13
2023-03-01T21:36:34.378Z,101626.00
2023-03-01T21:39:04.024Z,101581.75
2023-03-01T21:41:32.884Z,101443.16
2023-03-01T21:44:02.844Z,101647.44
2023-03-01T21:46:31.916Z,101497.19
2023-03-01T21:48:58.808Z,101652.63
2023-03-01T21:51:27.482Z,101473.84
2023-03-01T21:54:00.103Z,101489.22
2023-03-01T21:56:31.869Z,101643.53
2023-03-01T21:58:58.818Z,101537.88
2023-03-01T22:01:29.431Z,101544.06
2023-03-01T22:04:00.359Z,101445.00
2023-03-01T22:06:34.091Z,101388.25
2023-03-01T22:09:07.527Z,101623.88
2023-03-01T22:11:37.361Z,101622.78
2023-03-01T22:14:04.730Z,101500.88
2023-03-01T22:16:34.997Z,101636.84
2023-03-01T22:19:02.118Z,101532.00
2023-03-01T22:21:28.974Z,101604.47
2023-03-01T22:23:56.026Z,101627.00
2023-03-01T22:26:28.304Z,101633.28
2023-03-01T22:28:56.706Z,101635.69
2023-03-01T22:31:23.815Z,101611.53
2023-03-01T22:33:51.974Z,101632.91
2023-03-01T22:36:18.612Z,101353.13
2023-03-01T22:38:48.316Z,101584.13
2023-03-01T22:41:17.756Z,101507.16
2023-03-01T22:43:44.189Z,101592.94
2023-03-01T22:46:13.522Z,101327.09
2023-03-01T22:48:40.792Z,101491.56
2023-03-01T22:51:08.414Z,101370.28
2023-03-01T22:53:34.987Z,101428.53
2023-03-01T22:56:11.427Z,101470.53
2023-03-01T22:58:37.912Z,101517.66
2023-03-01T23:01:21.715Z,101533.16
2023-03-01T23:03:59.804Z,101371.09
2023-03-01T23:06:26.397Z,101463.47
2023-03-01T23:08:59.646Z,101546.88
2023-03-01T23:11:27.539Z,101591.78
2023-03-01T23:13:54.994Z,101408.28
2023-03-01T23:16:26.012Z,101537.63
2023-03-01T23:18:58.989Z,101606.41
2023-03-01T23:21:26.142Z,101522.50
2023-03-01T23:23:54.398Z,101572.09
2023-03-01T23:26:22.183Z,101586.97
2023-03-01T23:28:50.884Z,101530.78
2023-03-01T23:31:18.019Z,101466.34
2023-03-01T23:33:45.905Z,101642.69
2023-03-01T23:36:30.986Z,101623.34
2023-03-01T23:39:04.020Z,101519.59
2023-03-01T23:41:32.900Z,101589.69
2023-03-01T23:44:01.564Z,101550.28
2023-03-01T23:46:31.628Z,101639.22
2023-03-01T23:48:58.973Z,101559.28
2023-03-01T23:51:28.486Z,101627.59
2023-03-01T23:53:59.071Z,101642.53
2023-03-01T23:56:29.823Z,101639.88
2023-03-01T23:59:01.202Z,101525.38
